Time;durP1;ratioP1;P1;durP2;ratioP2;P2;SDS_P1;SDS_P2;PMS_P1;PMS_P2;Temp;Humidity;BMP_temperature;BMP_pressure;BME280_temperature;BME280_humidity;BME280_pressure;Samples;Min_cycle;Max_cycle;Signal;HPM_P1;HPM_P2
2021/06/18 00:03:39;;;;;;;8.8;6.3;;;;;;;15.65;100;98891.08;;;;
2021/06/18 00:13:39;;;;;;;8.6;5.8;;;;;;;15.55;100;98894.17;;;;
2021/06/18 00:23:38;;;;;;;10.2;7;;;;;;;15.37;100;98900.86;;;;
2021/06/18 00:33:37;;;;;;;8.1;6.2;;;;;;;15.03;100;98910.01;;;;
2021/06/18 00:43:36;;;;;;;9.3;6.6;;;;;;;14.95;100;98892.67;;;;
2021/06/18 00:53:36;;;;;;;8;6.2;;;;;;;14.9;100;98890.14;;;;
2021/06/18 01:03:34;;;;;;;11.2;7.2;;;;;;;14.7;100;98885.46;;;;
2021/06/18 01:13:33;;;;;;;9;6.4;;;;;;;14.54;100;98871.64;;;;
2021/06/18 01:23:33;;;;;;;9.5;7.6;;;;;;;14.45;100;98864.67;;;;
2021/06/18 01:33:32;;;;;;;9.8;7.2;;;;;;;14.31;100;98856.72;;;;
2021/06/18 01:43:31;;;;;;;9.5;7.5;;;;;;;14.2;100;98863.61;;;;
2021/06/18 01:53:30;;;;;;;8.5;6.3;;;;;;;14.13;100;98872.25;;;;
2021/06/18 02:03:30;;;;;;;10.4;7.4;;;;;;;14.02;100;98891.91;;;;
2021/06/18 02:13:28;;;;;;;9.7;7.8;;;;;;;13.89;100;98890.95;;;;
2021/06/18 02:23:29;;;;;;;8.8;6.5;;;;;;;13.74;100;98896.89;;;;
2021/06/18 02:33:26;;;;;;;10.1;7.1;;;;;;;13.65;100;98903.41;;;;
2021/06/18 02:43:26;;;;;;;10.9;7.4;;;;;;;13.59;100;98900.08;;;;
2021/06/18 02:53:24;;;;;;;10.1;6.3;;;;;;;13.6;100;98899.77;;;;
2021/06/18 03:03:23;;;;;;;11.4;7.8;;;;;;;13.71;100;98896.73;;;;
2021/06/18 03:13:22;;;;;;;10.3;6.7;;;;;;;13.8;100;98911.05;;;;
2021/06/18 03:23:21;;;;;;;21.3;8.5;;;;;;;13.89;100;98915.34;;;;
2021/06/18 03:33:21;;;;;;;12.3;9;;;;;;;14.29;100;98920.53;;;;
2021/06/18 03:43:19;;;;;;;10.5;8.6;;;;;;;14.6;100;98918.38;;;;
2021/06/18 03:53:18;;;;;;;11.3;9.2;;;;;;;14.87;100;98933.41;;;;
2021/06/18 04:03:17;;;;;;;9;7.5;;;;;;;15.17;100;98931.52;;;;
2021/06/18 04:13:16;;;;;;;11.7;9.5;;;;;;;15.48;100;98929.22;;;;
2021/06/18 04:23:16;;;;;;;11.7;8.3;;;;;;;15.97;100;98941.13;;;;
2021/06/18 04:33:15;;;;;;;11.1;8.2;;;;;;;16.43;100;98940.83;;;;
2021/06/18 04:43:14;;;;;;;11.7;9.1;;;;;;;17.06;100;98944.89;;;;
2021/06/18 04:53:14;;;;;;;13.8;10.5;;;;;;;17.48;100;98945.41;;;;
2021/06/18 05:03:13;;;;;;;13.6;8.7;;;;;;;17.95;100;98953.8;;;;
2021/06/18 05:13:13;;;;;;;15.1;9.1;;;;;;;18.46;100;98948.57;;;;
2021/06/18 05:23:12;;;;;;;17.4;9.8;;;;;;;18.51;100;98945.59;;;;
2021/06/18 05:33:12;;;;;;;11.3;8.4;;;;;;;19.23;100;98948.94;;;;
2021/06/18 05:43:12;;;;;;;24.9;11.3;;;;;;;19.78;100;98953.31;;;;
2021/06/18 05:53:12;;;;;;;14;10.2;;;;;;;20.18;100;98945.51;;;;
2021/06/18 06:03:11;;;;;;;11.4;8.2;;;;;;;20.63;100;98952.22;;;;
2021/06/18 06:13:11;;;;;;;12.4;8.8;;;;;;;20.79;100;98952.91;;;;
2021/06/18 06:23:11;;;;;;;11.8;9;;;;;;;21.22;100;98951.65;;;;
2021/06/18 06:33:11;;;;;;;12.2;8.8;;;;;;;21.66;100;98954.65;;;;
2021/06/18 06:43:11;;;;;;;11;7.4;;;;;;;22.29;100;98954.64;;;;
2021/06/18 06:53:12;;;;;;;12.5;7.6;;;;;;;22.73;100;98947.29;;;;
2021/06/18 07:03:12;;;;;;;10.7;7.6;;;;;;;23.24;100;98947.3;;;;
2021/06/18 07:13:12;;;;;;;11.7;7.3;;;;;;;23.59;100;98941.25;;;;
2021/06/18 07:23:12;;;;;;;11.1;8;;;;;;;24.16;100;98941.53;;;;
2021/06/18 07:33:13;;;;;;;15.5;7.2;;;;;;;24.65;96.99902;98941.61;;;;
2021/06/18 07:43:13;;;;;;;10.3;7.1;;;;;;;25.07;94.12988;98937.31;;;;
2021/06/18 07:53:14;;;;;;;15.4;6.3;;;;;;;25.44;91.1875;98919.12;;;;
2021/06/18 08:03:14;;;;;;;9.2;6.3;;;;;;;25.62;91.44434;98923.83;;;;
2021/06/18 08:13:15;;;;;;;12.6;6.4;;;;;;;25.97;87.75586;98915.41;;;;
2021/06/18 08:23:16;;;;;;;8.8;4.7;;;;;;;26.53;85.41504;98919.86;;;;
2021/06/18 08:33:16;;;;;;;9.2;4.3;;;;;;;26.97;79.99219;98917.16;;;;
2021/06/18 08:43:17;;;;;;;10.4;5.1;;;;;;;26.87;79.42578;98909.74;;;;
2021/06/18 08:53:18;;;;;;;6.2;4.3;;;;;;;27.14;72.20508;98909.13;;;;
2021/06/18 09:03:19;;;;;;;8.5;3.9;;;;;;;27.65;64.6084;98909;;;;
2021/06/18 09:13:20;;;;;;;8.4;5.3;;;;;;;27.94;66.40527;98901.89;;;;
2021/06/18 09:23:21;;;;;;;7.1;3.7;;;;;;;28.26;62.6084;98886.84;;;;
2021/06/18 09:33:25;;;;;;;7;4.2;;;;;;;28.15;64.10254;98889;;;;
2021/06/18 09:43:23;;;;;;;7.6;4.9;;;;;;;28.21;64.39355;98877.02;;;;
2021/06/18 09:53:24;;;;;;;7.6;5.7;;;;;;;28.56;62.34277;98883.23;;;;
2021/06/18 10:03:25;;;;;;;8.6;4.8;;;;;;;28.78;61.56934;98876.14;;;;
2021/06/18 10:13:27;;;;;;;14.2;5.2;;;;;;;28.87;62.28027;98866.09;;;;
2021/06/18 10:23:27;;;;;;;9;4.6;;;;;;;29.04;63.31836;98869.75;;;;
2021/06/18 10:33:35;;;;;;;6.5;3.9;;;;;;;29.06;64.34863;98844.33;;;;
2021/06/18 10:43:39;;;;;;;5.8;3.9;;;;;;;28.68;62.34668;98843.81;;;;
2021/06/18 10:53:30;;;;;;;8.4;4.6;;;;;;;28.8;62.16309;98838.47;;;;
2021/06/18 11:03:57;;;;;;;7.5;4.5;;;;;;;28.9;61.69336;98843.05;;;;
2021/06/18 11:13:33;;;;;;;8.1;4.3;;;;;;;28.87;60.2002;98834.78;;;;
2021/06/18 11:23:35;;;;;;;6.9;4.5;;;;;;;29.18;58.59668;98830.63;;;;
2021/06/18 11:33:46;;;;;;;9;4.6;;;;;;;29.17;60.42871;98814.39;;;;
2021/06/18 11:43:35;;;;;;;8.3;4.5;;;;;;;28.91;61.00977;98808.52;;;;
2021/06/18 11:53:39;;;;;;;8.1;5.6;;;;;;;29.43;60.39258;98802.41;;;;
2021/06/18 12:03:38;;;;;;;9.2;5.7;;;;;;;29.66;61.03809;98809.84;;;;
2021/06/18 12:13:39;;;;;;;8.7;4.5;;;;;;;29.78;60.47363;98800.86;;;;
2021/06/18 12:23:40;;;;;;;6.1;5.1;;;;;;;29.81;55.38184;98802.77;;;;
2021/06/18 12:33:41;;;;;;;8.5;5.3;;;;;;;29.94;55.70605;98784.23;;;;
2021/06/18 12:43:43;;;;;;;7;3.7;;;;;;;30.5;55.79883;98784.11;;;;
2021/06/18 12:53:44;;;;;;;7;4.2;;;;;;;30.33;53.99707;98775.75;;;;
2021/06/18 13:03:45;;;;;;;6.7;4.2;;;;;;;30.29;49.87988;98771.48;;;;
2021/06/18 13:13:46;;;;;;;6.2;3.8;;;;;;;30.24;54.6875;98761.66;;;;
2021/06/18 13:23:47;;;;;;;6.3;4;;;;;;;30.57;51.63379;98767.23;;;;
2021/06/18 13:33:49;;;;;;;5.9;4.1;;;;;;;30.86;51.46582;98763.24;;;;
2021/06/18 13:43:50;;;;;;;5.8;3.6;;;;;;;31.09;51.52734;98753.13;;;;
2021/06/18 13:53:53;;;;;;;6.7;4.4;;;;;;;30.94;51.37988;98756.27;;;;
2021/06/18 14:03:53;;;;;;;7.9;4;;;;;;;31.59;51.29785;98744.88;;;;
2021/06/18 14:13:58;;;;;;;7.4;3.6;;;;;;;31.19;53.37305;98735.33;;;;
2021/06/18 14:23:59;;;;;;;6.4;4.5;;;;;;;31.84;49.87109;98730.96;;;;
2021/06/18 14:33:57;;;;;;;10.2;5.2;;;;;;;32.15;50.16699;98720.02;;;;
2021/06/18 14:43:59;;;;;;;11.3;5;;;;;;;32.23;51.57227;98720.57;;;;
2021/06/18 14:54:00;;;;;;;5.1;3.4;;;;;;;31.98;50.56641;98712.2;;;;
2021/06/18 15:04:01;;;;;;;6.3;3.5;;;;;;;33.51;50.4834;98723.14;;;;
2021/06/18 15:14:03;;;;;;;8;4.2;;;;;;;34.73;39.63867;98715.75;;;;
2021/06/18 15:24:06;;;;;;;6.8;3.5;;;;;;;35.03;38.45898;98699.21;;;;
2021/06/18 15:34:07;;;;;;;4.9;2.9;;;;;;;36.58;34.83691;98697.34;;;;
2021/06/18 15:44:10;;;;;;;5.1;3.1;;;;;;;37.17;34.50488;98705.87;;;;
2021/06/18 15:54:12;;;;;;;4.3;2.8;;;;;;;38.03;30.87402;98694.23;;;;
2021/06/18 16:04:15;;;;;;;5.3;2.8;;;;;;;36.95;31.45605;98671.7;;;;
2021/06/18 16:14:17;;;;;;;6.2;2.9;;;;;;;37.12;31.03125;98672.8;;;;
2021/06/18 16:24:20;;;;;;;4.8;2.5;;;;;;;37.86;31.40918;98662.23;;;;
2021/06/18 16:34:22;;;;;;;4.6;2.3;;;;;;;38.07;30.85156;98655.39;;;;
2021/06/18 16:44:25;;;;;;;6.2;3.5;;;;;;;38.26;30.58496;98657.42;;;;
2021/06/18 16:54:28;;;;;;;7.1;3.3;;;;;;;37.56;32.10645;98653.86;;;;
2021/06/18 17:04:30;;;;;;;6.1;2.3;;;;;;;36.53;34.21484;98660.67;;;;
2021/06/18 17:14:43;;;;;;;5.9;2.8;;;;;;;32.29;42.49414;98646.23;;;;
2021/06/18 17:24:35;;;;;;;5.4;2.9;;;;;;;31.16;46.57715;98644.31;;;;
2021/06/18 17:34:37;;;;;;;4.5;2.3;;;;;;;32.07;45.4502;98645.42;;;;
2021/06/18 17:44:38;;;;;;;9.2;3.6;;;;;;;32.81;44.07617;98645.58;;;;
2021/06/18 17:54:41;;;;;;;6.9;3.4;;;;;;;31.74;46.34961;98636.53;;;;
2021/06/18 18:04:41;;;;;;;6.4;3.6;;;;;;;30.37;49.47266;98640.14;;;;
2021/06/18 18:14:42;;;;;;;7.9;3.9;;;;;;;28.53;55.20215;98634.48;;;;
2021/06/18 18:24:44;;;;;;;6.7;3.7;;;;;;;27.28;60.46094;98632.2;;;;
2021/06/18 18:34:44;;;;;;;8.7;4.9;;;;;;;26.38;64.97949;98642.02;;;;
2021/06/18 18:44:45;;;;;;;6.1;4.6;;;;;;;25.73;65.43652;98645.73;;;;
2021/06/18 18:54:46;;;;;;;9.3;4.2;;;;;;;25.29;67.24609;98665.73;;;;
2021/06/18 19:04:46;;;;;;;7.2;4.6;;;;;;;24.8;68.82031;98672.23;;;;
2021/06/18 19:14:46;;;;;;;8.2;5.2;;;;;;;24.48;71;98666.81;;;;
2021/06/18 19:24:47;;;;;;;8.1;5;;;;;;;24.16;72.25488;98679.88;;;;
2021/06/18 19:34:47;;;;;;;9.3;5.9;;;;;;;23.76;75.76465;98679.06;;;;
2021/06/18 19:44:47;;;;;;;7.9;6.2;;;;;;;23.46;77.03906;98673.91;;;;
2021/06/18 19:54:47;;;;;;;8.1;6;;;;;;;23.25;77.75781;98682.11;;;;
2021/06/18 20:04:47;;;;;;;12.1;6.3;;;;;;;22.95;79.64355;98690.63;;;;
2021/06/18 20:14:47;;;;;;;8;5.3;;;;;;;22.77;81.1748;98698;;;;
2021/06/18 20:24:47;;;;;;;10;6.8;;;;;;;22.45;82.93457;98708.02;;;;
2021/06/18 20:34:49;;;;;;;9.4;6.1;;;;;;;22.29;83.65625;98702;;;;
2021/06/18 20:44:47;;;;;;;8.9;6;;;;;;;22.16;84.31543;98703.48;;;;
2021/06/18 20:54:50;;;;;;;8.1;5.4;;;;;;;22.01;85.02832;98708.87;;;;
2021/06/18 21:04:47;;;;;;;9.8;5.7;;;;;;;21.83;85.13086;98699.66;;;;
2021/06/18 21:14:47;;;;;;;8.3;6;;;;;;;21.61;84.93848;98714.37;;;;
2021/06/18 21:24:47;;;;;;;8.5;5.7;;;;;;;21.34;88.53125;98699.2;;;;
2021/06/18 21:34:47;;;;;;;8.9;5.7;;;;;;;21.19;88.31738;98702.94;;;;
2021/06/18 21:44:47;;;;;;;8.8;6;;;;;;;21.02;89.61914;98715.25;;;;
2021/06/18 21:54:47;;;;;;;6.5;5.3;;;;;;;20.79;90.71387;98718.08;;;;
2021/06/18 22:04:46;;;;;;;13.4;6.3;;;;;;;20.35;94.46973;98720.59;;;;
2021/06/18 22:14:46;;;;;;;8.6;5.8;;;;;;;19.99;95.56641;98708.27;;;;
2021/06/18 22:24:46;;;;;;;10.1;7.1;;;;;;;19.58;96.56445;98703.66;;;;
2021/06/18 22:34:46;;;;;;;9.8;6.6;;;;;;;19.3;98.50488;98714.06;;;;
2021/06/18 22:44:45;;;;;;;9.8;6.3;;;;;;;18.94;100;98710.63;;;;
2021/06/18 22:54:45;;;;;;;9.2;6.3;;;;;;;18.68;100;98699.53;;;;
2021/06/18 23:04:45;;;;;;;10.8;6.9;;;;;;;18.45;100;98701.34;;;;
2021/06/18 23:14:44;;;;;;;10.5;6.4;;;;;;;18.25;100;98696.99;;;;
2021/06/18 23:24:43;;;;;;;9.5;6.8;;;;;;;18.06;100;98701.23;;;;
2021/06/18 23:34:43;;;;;;;9.4;6.3;;;;;;;17.87;100;98701.17;;;;
2021/06/18 23:44:42;;;;;;;10.4;7.3;;;;;;;17.68;100;98698.34;;;;
2021/06/18 23:54:42;;;;;;;10.5;7.9;;;;;;;17.49;100;98709.13;;;;
